createdAt,value
2023-11-07T00:03:50.506Z,166851.81
2023-11-07T00:13:53.588Z,166849.19
2023-11-07T00:23:57.911Z,166837.28
2023-11-07T00:34:01.252Z,166845.22
2023-11-07T00:44:06.400Z,166837.28
2023-11-07T00:54:11.438Z,166824.03
2023-11-07T01:04:15.969Z,166809.47
2023-11-07T01:14:19.008Z,166786.94
2023-11-07T01:24:23.323Z,166777.72
2023-11-07T01:34:26.553Z,166779.00
2023-11-07T01:44:31.527Z,166805.50
2023-11-07T01:54:34.653Z,166846.50
2023-11-07T02:04:39.076Z,166875.66
2023-11-07T02:14:42.338Z,166896.84
2023-11-07T02:24:46.789Z,166895.50
2023-11-07T02:34:50.032Z,166876.94
2023-11-07T02:44:54.386Z,166831.97
2023-11-07T02:54:57.334Z,166794.94
2023-11-07T03:05:01.687Z,166786.94
2023-11-07T03:15:05.057Z,166767.13
2023-11-07T03:25:10.366Z,166755.22
2023-11-07T03:35:14.348Z,166739.34
2023-11-07T03:45:18.708Z,166728.72
2023-11-07T03:55:21.724Z,166710.13
2023-11-07T04:05:26.115Z,166703.56
2023-11-07T04:15:29.095Z,166698.25
2023-11-07T04:25:33.391Z,166700.91
2023-11-07T04:35:36.352Z,166712.81
2023-11-07T04:45:41.232Z,166718.13
2023-11-07T04:55:44.995Z,166715.44
2023-11-07T05:05:50.206Z,166685.00
2023-11-07T05:15:54.796Z,166743.31
2023-11-07T05:25:59.274Z,166739.34
2023-11-07T05:36:02.169Z,166720.81
2023-11-07T05:46:07.353Z,166696.91
2023-11-07T05:56:10.959Z,166690.31
2023-11-07T06:06:15.283Z,166694.28
2023-11-07T06:16:18.431Z,166691.66
2023-11-07T06:26:22.743Z,166738.00
2023-11-07T06:36:25.936Z,166782.97
2023-11-07T06:46:30.245Z,166841.25
2023-11-07T06:56:33.460Z,166863.72
2023-11-07T07:06:37.815Z,166887.56
2023-11-07T07:16:40.757Z,166874.31
2023-11-07T07:26:46.619Z,166810.78
2023-11-07T07:36:51.759Z,166822.69
2023-11-07T07:46:58.240Z,166834.59
2023-11-07T07:57:01.315Z,166817.38
2023-11-07T08:07:06.302Z,166813.41
2023-11-07T08:17:10.830Z,166902.09
2023-11-07T08:27:15.302Z,166916.69
2023-11-07T08:37:18.412Z,166927.28
2023-11-07T08:47:25.289Z,166947.13
2023-11-07T08:57:33.840Z,166988.16
2023-11-07T09:07:44.638Z,167030.53
2023-11-07T09:17:50.713Z,167051.72
2023-11-07T09:28:00.911Z,167080.91
2023-11-07T09:38:06.832Z,167096.78
2023-11-07T09:48:22.845Z,167133.84
2023-11-07T09:58:28.723Z,167173.59
2023-11-07T10:08:33.506Z,167225.34
2023-11-07T10:18:47.216Z,167267.72
2023-11-07T10:29:06.100Z,167319.41
2023-11-07T10:39:17.974Z,167335.31
2023-11-07T10:49:23.674Z,167375.09
2023-11-07T10:59:29.557Z,167490.41
2023-11-07T11:09:36.466Z,167539.47
2023-11-07T11:19:55.251Z,167489.06
2023-11-07T11:30:00.164Z,167550.06
2023-11-07T11:40:04.327Z,167617.75
2023-11-07T11:50:19.240Z,167739.78
2023-11-07T12:00:23.496Z,167730.50
2023-11-07T12:10:28.859Z,167738.44
2023-11-07T12:20:33.763Z,167750.38
2023-11-07T12:30:38.495Z,167755.69
2023-11-07T12:40:52.443Z,167742.44
2023-11-07T12:50:57.429Z,167758.34
2023-11-07T13:01:02.447Z,167702.63
2023-11-07T13:11:11.175Z,167608.41
2023-11-07T13:21:14.415Z,167611.09
2023-11-07T13:31:20.404Z,167628.38
2023-11-07T13:41:26.460Z,167623.06
2023-11-07T13:51:39.882Z,167609.75
2023-11-07T14:01:44.170Z,167649.59
2023-11-07T14:11:50.230Z,167636.31
2023-11-07T14:22:02.228Z,167562.00
2023-11-07T14:32:10.118Z,167514.25
2023-11-07T14:42:18.992Z,167473.16
2023-11-07T14:52:29.159Z,167495.72
2023-11-07T15:02:32.378Z,167457.28
2023-11-07T15:12:40.264Z,167469.19
2023-11-07T15:22:47.168Z,167406.91
2023-11-07T15:33:01.026Z,167368.44
2023-11-07T15:43:06.478Z,167372.44
2023-11-07T15:53:15.407Z,167312.75
2023-11-07T16:03:19.736Z,167237.25
2023-11-07T16:13:24.251Z,167205.47
2023-11-07T16:23:27.285Z,167159.00
2023-11-07T16:33:31.736Z,167098.13
2023-11-07T16:43:34.858Z,167043.78
2023-11-07T16:53:40.075Z,166996.09
2023-11-07T17:03:43.183Z,166959.03
2023-11-07T17:13:47.562Z,166928.59
2023-11-07T17:23:51.779Z,166898.13
2023-11-07T17:33:56.129Z,166882.25
2023-11-07T17:43:59.369Z,166871.69
2023-11-07T17:54:03.713Z,166853.16
2023-11-07T18:04:07.289Z,166837.28
2023-11-07T18:14:12.855Z,166820.06
2023-11-07T18:24:15.924Z,166813.41
2023-11-07T18:34:23.473Z,166805.50
2023-11-07T18:44:31.616Z,166781.69
2023-11-07T18:54:36.377Z,166757.84
2023-11-07T19:04:40.636Z,166744.59
2023-11-07T19:14:45.468Z,166741.97
2023-11-07T19:24:48.214Z,166732.69
2023-11-07T19:34:52.983Z,166712.81
2023-11-07T19:44:56.626Z,166712.81
2023-11-07T19:55:00.955Z,166714.09
2023-11-07T20:05:04.304Z,166728.72
2023-11-07T20:15:09.848Z,166782.97
2023-11-07T20:25:12.991Z,166850.50
2023-11-07T20:35:17.410Z,166876.94
2023-11-07T20:45:20.656Z,166894.16
2023-11-07T20:55:26.835Z,166876.94
2023-11-07T21:05:29.836Z,166884.88
2023-11-07T21:15:34.528Z,166890.19
2023-11-07T21:25:37.423Z,166869.03
2023-11-07T21:35:42.196Z,166847.84
2023-11-07T21:45:47.558Z,166780.34
2023-11-07T21:55:51.973Z,166757.84
2023-11-07T22:05:54.975Z,166715.44
2023-11-07T22:15:59.280Z,166708.84
2023-11-07T22:26:02.283Z,166692.94
2023-11-07T22:36:07.213Z,166673.09
2023-11-07T22:46:10.312Z,166683.72
2023-11-07T22:56:14.916Z,166691.66
2023-11-07T23:06:18.120Z,166685.00
2023-11-07T23:16:23.198Z,166702.22
2023-11-07T23:26:31.135Z,166694.28
2023-11-07T23:36:42.534Z,166686.34
2023-11-07T23:46:46.082Z,166688.97
2023-11-07T23:56:50.456Z,166707.50
